createdAt,value
2022-11-01T00:01:50.922Z,6.93
2022-11-01T00:04:19.080Z,5.73
2022-11-01T00:06:48.936Z,7.83
2022-11-01T00:09:17.015Z,15.00
2022-11-01T00:11:45.054Z,10.90
2022-11-01T00:14:14.361Z,12.80
2022-11-01T00:16:42.807Z,11.50
2022-11-01T00:19:11.190Z,9.87
2022-11-01T00:21:39.367Z,9.80
2022-11-01T00:24:09.018Z,16.30
2022-11-01T00:26:37.169Z,8.23
2022-11-01T00:29:05.567Z,11.10
2022-11-01T00:31:33.871Z,10.40
2022-11-01T00:34:03.824Z,7.67
2022-11-01T00:36:32.043Z,8.40
2022-11-01T00:39:00.046Z,13.33
2022-11-01T00:41:29.461Z,12.23
2022-11-01T00:43:57.456Z,14.03
2022-11-01T00:46:25.480Z,15.43
2022-11-01T00:48:53.509Z,9.60
2022-11-01T00:51:21.472Z,9.97
2022-11-01T00:53:49.614Z,9.20
2022-11-01T00:56:17.627Z,14.90
2022-11-01T00:58:47.026Z,9.37
2022-11-01T01:01:15.203Z,7.80
2022-11-01T01:03:43.269Z,6.03
2022-11-01T01:06:11.280Z,8.50
2022-11-01T01:08:39.488Z,10.73
2022-11-01T01:11:07.679Z,9.23
2022-11-01T01:13:35.752Z,7.70
2022-11-01T01:16:10.673Z,6.57
2022-11-01T01:18:39.390Z,8.53
2022-11-01T01:21:07.472Z,10.03
2022-11-01T01:23:35.674Z,12.70
2022-11-01T01:26:07.827Z,8.43
2022-11-01T01:28:41.691Z,10.00
2022-11-01T01:31:15.132Z,10.70
2022-11-01T01:33:43.178Z,7.27
2022-11-01T01:36:11.410Z,10.93
2022-11-01T01:38:39.449Z,5.70
2022-11-01T01:41:21.472Z,10.80
2022-11-01T01:43:49.727Z,13.50
2022-11-01T01:46:19.084Z,10.60
2022-11-01T01:48:50.441Z,10.67
2022-11-01T01:51:22.258Z,16.63
2022-11-01T01:53:53.526Z,8.20
2022-11-01T01:56:27.511Z,12.03
2022-11-01T01:58:59.909Z,16.57
2022-11-01T02:01:30.144Z,15.63
2022-11-01T02:04:01.649Z,12.67
2022-11-01T02:06:29.701Z,14.00
2022-11-01T02:09:00.732Z,13.10
2022-11-01T02:11:29.004Z,12.00
2022-11-01T02:13:58.467Z,12.10
2022-11-01T02:16:48.186Z,11.40
2022-11-01T02:19:42.443Z,13.60
2022-11-01T02:22:14.584Z,12.00
2022-11-01T02:25:19.545Z,19.73
2022-11-01T02:28:09.967Z,17.53
2022-11-01T02:30:46.437Z,18.03
2022-11-01T02:33:24.306Z,14.73
2022-11-01T02:36:01.002Z,11.17
2022-11-01T02:38:35.248Z,16.70
2022-11-01T02:41:09.826Z,15.17
2022-11-01T02:43:45.321Z,18.70
2022-11-01T02:46:30.967Z,14.27
2022-11-01T02:49:00.585Z,12.47
2022-11-01T02:51:30.091Z,21.30
2022-11-01T02:54:02.269Z,12.70
2022-11-01T02:56:31.253Z,19.13
2022-11-01T02:58:59.419Z,14.60
2022-11-01T03:01:29.876Z,15.33
2022-11-01T03:04:01.405Z,17.80
2022-11-01T03:06:35.186Z,14.50
2022-11-01T03:09:05.572Z,15.77
2022-11-01T03:11:42.289Z,12.40
2022-11-01T03:14:19.200Z,13.70
2022-11-01T03:16:55.012Z,18.50
2022-11-01T03:19:39.015Z,15.33
2022-11-01T03:22:12.034Z,15.03
2022-11-01T03:24:47.605Z,15.63
2022-11-01T03:27:21.430Z,17.57
2022-11-01T03:29:56.893Z,18.03
2022-11-01T03:32:28.828Z,13.93
2022-11-01T03:35:00.471Z,12.80
2022-11-01T03:37:29.892Z,12.63
2022-11-01T03:40:03.652Z,13.27
2022-11-01T03:42:33.364Z,14.23
2022-11-01T03:45:06.803Z,31.63
2022-11-01T03:47:35.394Z,11.63
2022-11-01T03:50:15.168Z,18.50
2022-11-01T03:52:43.257Z,13.87
2022-11-01T03:55:18.955Z,17.50
2022-11-01T03:57:48.222Z,12.30
2022-11-01T04:00:18.338Z,13.00
2022-11-01T04:02:46.523Z,14.40
2022-11-01T04:05:16.155Z,15.00
2022-11-01T04:07:44.989Z,20.80
2022-11-01T04:10:13.510Z,19.40
2022-11-01T04:12:41.949Z,15.07
2022-11-01T04:15:29.487Z,14.03
2022-11-01T04:18:23.427Z,16.87
2022-11-01T04:20:53.633Z,15.47
2022-11-01T04:23:21.653Z,14.13
2022-11-01T04:25:49.670Z,16.07
2022-11-01T04:28:17.733Z,11.83
2022-11-01T04:30:45.768Z,16.03
2022-11-01T04:33:13.766Z,20.10
2022-11-01T04:35:41.838Z,13.77
2022-11-01T04:38:11.954Z,11.10
2022-11-01T04:40:40.803Z,11.47
2022-11-01T04:43:09.358Z,21.80
2022-11-01T04:45:37.371Z,15.07
2022-11-01T04:48:07.637Z,10.63
2022-11-01T04:50:36.419Z,12.00
2022-11-01T04:53:04.708Z,12.07
2022-11-01T04:55:34.562Z,15.13
2022-11-01T04:58:03.126Z,12.47
2022-11-01T05:00:32.928Z,16.23
2022-11-01T05:03:03.697Z,17.03
2022-11-01T05:05:32.278Z,13.97
2022-11-01T05:10:37.466Z,10.60
2022-11-01T05:13:06.336Z,15.20
2022-11-01T05:15:40.047Z,13.20
2022-11-01T05:18:11.748Z,11.13
2022-11-01T05:20:39.754Z,11.37
2022-11-01T05:23:07.919Z,14.50
2022-11-01T05:25:38.349Z,12.10
2022-11-01T05:28:08.602Z,18.30
2022-11-01T05:30:37.351Z,11.33
2022-11-01T05:33:07.289Z,9.77
2022-11-01T05:35:36.724Z,11.57
2022-11-01T05:38:05.782Z,9.73
2022-11-01T05:40:34.354Z,14.17
2022-11-01T05:43:04.288Z,10.40
2022-11-01T05:45:32.552Z,9.93
2022-11-01T05:48:03.432Z,9.70
2022-11-01T05:50:31.586Z,10.40
2022-11-01T05:53:08.636Z,9.73
2022-11-01T05:55:37.421Z,9.17
2022-11-01T05:58:07.196Z,11.90
2022-11-01T06:00:35.806Z,13.00
2022-11-01T06:03:04.954Z,8.30
2022-11-01T06:05:33.486Z,9.47
2022-11-01T06:08:02.731Z,12.97
2022-11-01T06:10:30.937Z,9.07
2022-11-01T06:12:59.378Z,13.83
2022-11-01T06:15:29.003Z,12.37
2022-11-01T06:17:58.404Z,12.20
2022-11-01T06:20:26.820Z,12.00
2022-11-01T06:22:54.858Z,17.83
2022-11-01T06:25:23.465Z,8.97
2022-11-01T06:27:51.476Z,14.93
2022-11-01T06:30:19.604Z,12.07
2022-11-01T06:32:48.967Z,11.27
2022-11-01T06:35:17.085Z,9.43
2022-11-01T06:37:45.347Z,10.73
2022-11-01T06:40:14.049Z,15.90
2022-11-01T06:42:46.377Z,10.87
2022-11-01T06:45:15.992Z,17.37
2022-11-01T06:47:48.777Z,14.47
2022-11-01T06:50:16.987Z,17.33
2022-11-01T06:52:44.978Z,24.77
2022-11-01T06:55:13.206Z,20.20
2022-11-01T06:57:41.273Z,21.37
2022-11-01T07:00:11.210Z,17.43
2022-11-01T07:02:39.377Z,14.90
2022-11-01T07:05:09.248Z,23.77
2022-11-01T07:07:37.250Z,17.90
2022-11-01T07:10:05.878Z,19.00
2022-11-01T07:12:33.875Z,20.40
2022-11-01T07:15:01.882Z,14.60
2022-11-01T07:17:29.893Z,18.03
2022-11-01T07:19:57.907Z,17.87
2022-11-01T07:22:27.271Z,17.87
2022-11-01T07:24:55.287Z,15.57
2022-11-01T07:27:23.361Z,16.60
2022-11-01T07:29:51.353Z,20.07
2022-11-01T07:32:19.405Z,17.70
2022-11-01T07:34:47.410Z,15.13
2022-11-01T07:37:15.466Z,15.23
2022-11-01T07:39:44.860Z,22.13
2022-11-01T07:42:13.085Z,17.97
2022-11-01T07:44:45.226Z,16.50
2022-11-01T07:47:13.231Z,11.93
2022-11-01T07:49:47.717Z,17.70
2022-11-01T07:52:15.773Z,14.77
2022-11-01T07:54:45.095Z,18.73
2022-11-01T07:57:13.116Z,20.97
2022-11-01T07:59:41.121Z,19.77
2022-11-01T08:02:09.975Z,13.40
2022-11-01T08:04:38.559Z,17.17
2022-11-01T08:07:06.625Z,21.33
2022-11-01T08:09:34.631Z,15.87
2022-11-01T08:12:04.020Z,16.60
2022-11-01T08:14:31.988Z,23.80
2022-11-01T08:17:01.710Z,17.80
2022-11-01T08:19:29.874Z,19.87
2022-11-01T08:21:58.880Z,13.77
2022-11-01T08:24:27.416Z,15.87
2022-11-01T08:26:55.417Z,18.50
2022-11-01T08:29:24.786Z,12.83
2022-11-01T08:31:52.849Z,12.87
2022-11-01T08:34:21.065Z,16.47
2022-11-01T08:36:49.172Z,13.93
2022-11-01T08:39:17.342Z,13.00
2022-11-01T08:41:50.964Z,12.03
2022-11-01T08:44:19.922Z,18.20
2022-11-01T08:46:49.299Z,15.97
2022-11-01T08:49:17.283Z,14.50
2022-11-01T08:51:45.244Z,16.00
2022-11-01T08:54:13.248Z,16.70
2022-11-01T08:56:41.287Z,12.87
2022-11-01T08:59:09.836Z,12.23
2022-11-01T09:01:38.608Z,11.00
2022-11-01T09:04:08.196Z,13.60
2022-11-01T09:06:36.511Z,17.40
2022-11-01T09:09:05.164Z,18.23
2022-11-01T09:11:33.211Z,11.50
2022-11-01T09:14:01.245Z,10.00
2022-11-01T09:16:29.384Z,14.23
2022-11-01T09:19:01.463Z,17.90
2022-11-01T09:21:31.995Z,13.53
2022-11-01T09:24:00.719Z,11.07
2022-11-01T09:26:29.222Z,11.20
2022-11-01T09:28:58.475Z,8.00
2022-11-01T09:31:28.483Z,11.50
2022-11-01T09:33:57.314Z,10.17
2022-11-01T09:36:26.091Z,9.63
2022-11-01T09:38:55.693Z,10.83
2022-11-01T09:41:33.298Z,11.27
2022-11-01T09:44:04.150Z,11.33
2022-11-01T09:46:44.776Z,11.07
2022-11-01T09:49:19.024Z,9.93
2022-11-01T09:51:47.040Z,9.43
2022-11-01T09:54:18.528Z,8.30
2022-11-01T09:56:54.772Z,7.17
2022-11-01T09:59:30.142Z,6.93
2022-11-01T10:02:09.740Z,14.97
2022-11-01T10:05:07.183Z,8.17
2022-11-01T10:07:45.282Z,8.80
2022-11-01T10:10:26.657Z,9.07
2022-11-01T10:13:08.530Z,3.83
2022-11-01T10:15:51.276Z,5.70
2022-11-01T10:18:29.019Z,3.10
2022-11-01T10:20:58.468Z,4.10
2022-11-01T10:23:41.923Z,2.37
2022-11-01T10:26:17.465Z,5.23
2022-11-01T10:28:52.841Z,4.33
2022-11-01T10:31:24.351Z,4.03
2022-11-01T10:33:57.860Z,3.07
2022-11-01T10:36:31.348Z,4.47
2022-11-01T10:39:52.384Z,2.70
2022-11-01T10:41:56.977Z,3.27
2022-11-01T10:44:29.249Z,3.30
2022-11-01T10:46:58.851Z,5.50
2022-11-01T10:49:40.518Z,2.07
2022-11-01T10:52:23.569Z,2.10
2022-11-01T10:54:53.536Z,2.13
2022-11-01T10:57:30.784Z,2.90
2022-11-01T11:00:01.230Z,2.90
2022-11-01T11:02:35.734Z,5.47
2022-11-01T11:05:04.674Z,4.10
2022-11-01T11:07:33.447Z,1.90
2022-11-01T11:10:03.579Z,2.70
2022-11-01T11:12:34.561Z,4.20
2022-11-01T11:15:06.319Z,2.23
2022-11-01T11:17:39.462Z,2.70
2022-11-01T11:20:11.304Z,4.77
2022-11-01T11:22:41.052Z,4.90
2022-11-01T11:25:16.151Z,1.30
2022-11-01T11:27:48.533Z,2.10
2022-11-01T11:30:29.073Z,1.90
2022-11-01T11:32:58.606Z,2.37
2022-11-01T11:35:28.592Z,1.40
2022-11-01T11:37:58.764Z,1.73
2022-11-01T11:40:28.285Z,11.40
2022-11-01T11:43:22.708Z,1.63
2022-11-01T11:46:05.539Z,1.43
2022-11-01T11:48:33.896Z,2.13
2022-11-01T11:51:03.228Z,2.60
2022-11-01T11:53:33.236Z,1.80
2022-11-01T11:56:03.903Z,1.33
2022-11-01T11:58:38.273Z,1.20
2022-11-01T12:01:09.247Z,0.87
2022-11-01T12:03:46.946Z,1.87
2022-11-01T12:06:21.587Z,1.00
2022-11-01T12:08:50.942Z,5.00
2022-11-01T12:11:19.361Z,2.40
2022-11-01T12:14:02.271Z,0.90
2022-11-01T12:16:30.626Z,1.63
2022-11-01T12:19:00.261Z,2.50
2022-11-01T12:21:31.701Z,2.80
2022-11-01T12:24:05.698Z,1.00
2022-11-01T12:26:37.354Z,1.10
2022-11-01T12:29:18.483Z,4.03
2022-11-01T12:31:48.320Z,1.00
2022-11-01T12:34:21.978Z,0.90
2022-11-01T12:36:58.111Z,5.53
2022-11-01T12:39:40.211Z,0.80
2022-11-01T12:42:13.408Z,1.83
2022-11-01T12:44:46.980Z,2.77
2022-11-01T12:47:21.025Z,0.87
2022-11-01T12:49:55.745Z,3.07
2022-11-01T12:52:31.302Z,1.00
2022-11-01T12:55:07.282Z,1.83
2022-11-01T12:57:35.489Z,1.27
2022-11-01T13:00:06.537Z,0.67
2022-11-01T13:02:49.673Z,4.47
2022-11-01T13:05:22.135Z,1.77
2022-11-01T13:08:00.835Z,0.73
2022-11-01T13:10:35.257Z,2.20
2022-11-01T13:13:15.126Z,1.00
2022-11-01T13:15:55.441Z,2.07
2022-11-01T13:18:33.847Z,3.13
2022-11-01T13:21:11.361Z,0.80
2022-11-01T13:23:44.043Z,0.90
2022-11-01T13:26:17.147Z,1.10
2022-11-01T13:28:54.791Z,4.70
2022-11-01T13:31:35.471Z,1.53
2022-11-01T13:34:14.383Z,2.33
2022-11-01T13:36:47.355Z,4.60
2022-11-01T13:39:24.864Z,4.20
2022-11-01T13:41:58.307Z,5.50
2022-11-01T13:44:29.506Z,2.43
2022-11-01T13:47:23.806Z,1.00
2022-11-01T13:50:20.361Z,0.87
2022-11-01T13:52:53.085Z,1.20
2022-11-01T13:55:27.693Z,4.37
2022-11-01T13:57:56.109Z,2.10
2022-11-01T14:00:39.796Z,1.43
2022-11-01T14:03:24.418Z,1.00
2022-11-01T14:09:27.157Z,2.23
2022-11-01T14:11:56.466Z,1.33
2022-11-01T14:14:53.175Z,0.80
2022-11-01T14:17:55.795Z,1.63
2022-11-01T14:20:50.359Z,6.10
2022-11-01T14:23:54.691Z,2.10
2022-11-01T14:26:45.210Z,1.30
2022-11-01T14:29:13.304Z,2.60
2022-11-01T14:31:43.834Z,3.03
2022-11-01T14:34:38.887Z,3.33
2022-11-01T14:37:27.883Z,2.33
2022-11-01T14:40:14.633Z,4.83
2022-11-01T14:42:45.310Z,1.00
2022-11-01T14:45:29.979Z,5.77
2022-11-01T14:48:01.671Z,2.43
2022-11-01T14:50:41.032Z,1.10
2022-11-01T14:53:19.255Z,6.43
2022-11-01T14:55:47.533Z,3.20
2022-11-01T14:58:21.825Z,3.00
2022-11-01T15:00:51.897Z,3.60
2022-11-01T15:03:20.665Z,2.60
2022-11-01T15:05:50.903Z,5.80
2022-11-01T15:08:27.182Z,2.00
2022-11-01T15:10:57.428Z,4.30
2022-11-01T15:13:28.675Z,5.23
2022-11-01T15:16:03.451Z,2.30
2022-11-01T15:18:32.711Z,3.27
2022-11-01T15:21:01.932Z,2.20
2022-11-01T15:23:36.674Z,3.60
2022-11-01T15:26:08.750Z,3.63
2022-11-01T15:28:40.591Z,1.10
2022-11-01T15:31:10.015Z,1.90
2022-11-01T15:33:38.235Z,7.23
2022-11-01T15:36:08.740Z,1.27
2022-11-01T15:38:51.565Z,11.17
2022-11-01T15:41:27.083Z,2.40
2022-11-01T15:43:56.905Z,0.90
2022-11-01T15:46:26.959Z,8.97
2022-11-01T15:48:57.584Z,5.03
2022-11-01T15:51:28.945Z,5.50
2022-11-01T15:54:02.505Z,2.93
2022-11-01T15:56:42.325Z,3.70
2022-11-01T15:59:24.823Z,3.63
2022-11-01T16:01:53.132Z,8.43
2022-11-01T16:04:23.023Z,5.10
2022-11-01T16:06:57.798Z,7.23
2022-11-01T16:09:41.047Z,4.57
2022-11-01T16:12:18.365Z,3.87
2022-11-01T16:14:53.621Z,4.03
2022-11-01T16:17:31.470Z,2.13
2022-11-01T16:19:59.752Z,5.17
2022-11-01T16:22:33.571Z,2.90
2022-11-01T16:25:05.387Z,7.50
2022-11-01T16:27:35.747Z,5.73
2022-11-01T16:30:08.541Z,4.47
2022-11-01T16:32:37.068Z,3.83
2022-11-01T16:35:31.500Z,3.70
2022-11-01T16:38:00.000Z,4.27
2022-11-01T16:40:31.745Z,1.97
2022-11-01T16:43:01.167Z,9.60
2022-11-01T16:45:29.524Z,5.60
2022-11-01T16:47:59.717Z,6.90
2022-11-01T16:50:27.764Z,6.70
2022-11-01T16:52:57.017Z,4.53
2022-11-01T16:55:28.458Z,9.67
2022-11-01T16:57:59.139Z,7.70
2022-11-01T17:00:27.425Z,17.23
2022-11-01T17:02:57.974Z,2.37
2022-11-01T17:05:26.196Z,6.23
2022-11-01T17:07:55.306Z,2.73
2022-11-01T17:10:25.751Z,2.80
2022-11-01T17:12:57.502Z,2.60
2022-11-01T17:15:27.769Z,3.30
2022-11-01T17:17:56.038Z,3.63
2022-11-01T17:20:27.698Z,8.13
2022-11-01T17:22:56.917Z,2.73
2022-11-01T17:25:28.717Z,7.20
2022-11-01T17:27:56.960Z,5.53
2022-11-01T17:30:26.411Z,9.57
2022-11-01T17:32:54.397Z,2.20
2022-11-01T17:35:24.367Z,2.33
2022-11-01T17:37:55.647Z,9.70
2022-11-01T17:40:25.778Z,7.20
2022-11-01T17:42:54.557Z,8.50
2022-11-01T17:45:23.457Z,9.33
2022-11-01T17:47:55.763Z,5.27
2022-11-01T17:50:24.723Z,9.17
2022-11-01T17:52:54.198Z,6.07
2022-11-01T17:55:22.212Z,10.93
2022-11-01T17:57:50.212Z,5.03
2022-11-01T18:00:18.558Z,8.87
2022-11-01T18:02:46.554Z,6.03
2022-11-01T18:05:16.019Z,9.17
2022-11-01T18:07:47.538Z,5.20
2022-11-01T18:10:20.355Z,9.33
2022-11-01T18:12:59.575Z,12.30
2022-11-01T18:15:35.348Z,12.53
2022-11-01T18:18:21.576Z,12.70
2022-11-01T18:20:59.717Z,11.67
2022-11-01T18:23:28.896Z,11.27
2022-11-01T18:25:56.908Z,11.20
2022-11-01T18:28:27.722Z,6.80
2022-11-01T18:30:57.632Z,7.80
2022-11-01T18:33:34.724Z,9.73
2022-11-01T18:36:11.991Z,5.63
2022-11-01T18:38:45.319Z,5.67
2022-11-01T18:41:20.930Z,7.47
2022-11-01T18:43:53.034Z,7.13
2022-11-01T18:46:25.540Z,5.27
2022-11-01T18:48:59.739Z,6.20
2022-11-01T18:51:31.233Z,2.83
2022-11-01T18:54:22.197Z,9.10
2022-11-01T18:56:52.468Z,10.13
2022-11-01T18:59:29.183Z,4.70
2022-11-01T19:02:01.202Z,9.73
2022-11-01T19:04:31.799Z,7.30
2022-11-01T19:07:11.353Z,4.33
2022-11-01T19:09:42.291Z,6.83
2022-11-01T19:12:16.608Z,7.93
2022-11-01T19:14:46.081Z,14.47
2022-11-01T19:17:23.548Z,7.23
2022-11-01T19:19:52.551Z,5.90
2022-11-01T19:22:36.641Z,7.13
2022-11-01T19:25:17.057Z,9.10
2022-11-01T19:27:45.539Z,3.00
2022-11-01T19:30:22.045Z,15.97
2022-11-01T19:32:51.108Z,2.67
2022-11-01T19:35:22.077Z,7.43
2022-11-01T19:37:54.512Z,5.20
2022-11-01T19:40:28.873Z,6.23
2022-11-01T19:42:59.954Z,5.23
2022-11-01T19:45:33.575Z,7.20
2022-11-01T19:48:03.023Z,5.87
2022-11-01T19:50:41.226Z,9.77
2022-11-01T19:53:20.602Z,9.47
2022-11-01T19:55:52.533Z,6.03
2022-11-01T19:58:39.048Z,9.20
2022-11-01T20:01:34.539Z,6.17
2022-11-01T20:04:05.112Z,9.30
2022-11-01T20:06:37.203Z,9.90
2022-11-01T20:09:12.419Z,7.78
2022-11-01T20:11:40.486Z,7.67
2022-11-01T20:14:08.959Z,5.13
2022-11-01T20:16:37.172Z,9.80
2022-11-01T20:19:05.435Z,10.47
2022-11-01T20:21:33.440Z,5.40
2022-11-01T20:24:01.431Z,6.22
2022-11-01T20:26:31.068Z,10.80
2022-11-01T20:28:59.219Z,7.57
2022-11-01T20:31:27.914Z,3.93
2022-11-01T20:33:56.335Z,3.90
2022-11-01T20:36:24.636Z,5.93
2022-11-01T20:38:53.039Z,6.73
2022-11-01T20:41:21.121Z,5.90
2022-11-01T20:43:50.536Z,4.43
2022-11-01T20:46:19.346Z,5.60
2022-11-01T20:48:47.380Z,5.83
2022-11-01T20:51:15.674Z,4.30
2022-11-01T20:53:43.732Z,36.67
2022-11-01T20:56:12.052Z,8.90
2022-11-01T20:58:40.819Z,5.33
2022-11-01T21:01:16.036Z,3.70
2022-11-01T21:03:44.395Z,7.30
2022-11-01T21:06:14.411Z,4.20
2022-11-01T21:08:44.940Z,2.03
2022-11-01T21:11:20.498Z,4.77
2022-11-01T21:13:51.686Z,5.50
2022-11-01T21:16:28.879Z,5.30
2022-11-01T21:19:02.054Z,11.00
2022-11-01T21:21:35.301Z,6.20
2022-11-01T21:24:34.966Z,4.83
2022-11-01T21:27:23.625Z,5.67
2022-11-01T21:29:52.722Z,5.40
2022-11-01T21:32:30.042Z,6.07
2022-11-01T21:34:58.803Z,3.77
2022-11-01T21:37:30.192Z,8.83
2022-11-01T21:40:06.671Z,7.87
2022-11-01T21:42:37.308Z,11.03
2022-11-01T21:45:29.513Z,6.20
2022-11-01T21:48:03.388Z,7.07
2022-11-01T21:50:31.691Z,33.10
2022-11-01T21:52:59.698Z,11.23
2022-11-01T21:55:27.759Z,7.30
2022-11-01T21:57:55.769Z,7.33
2022-11-01T22:00:23.885Z,7.07
2022-11-01T22:02:51.898Z,3.37
2022-11-01T22:05:21.336Z,6.67
2022-11-01T22:07:49.362Z,9.03
2022-11-01T22:10:17.440Z,8.70
2022-11-01T22:12:45.443Z,9.50
2022-11-01T22:15:14.110Z,2.63
2022-11-01T22:17:42.135Z,8.53
2022-11-01T22:20:10.736Z,5.53
2022-11-01T22:22:40.105Z,13.20
2022-11-01T22:25:08.594Z,11.13
2022-11-01T22:27:36.624Z,7.07
2022-11-01T22:30:05.446Z,7.87
2022-11-01T22:32:33.455Z,8.20
2022-11-01T22:35:01.558Z,6.93
2022-11-01T22:37:31.320Z,7.73
2022-11-01T22:40:00.651Z,8.17
2022-11-01T22:42:28.678Z,11.20
2022-11-01T22:44:57.210Z,9.30
2022-11-01T22:47:27.980Z,6.67
2022-11-01T22:49:58.263Z,12.47
2022-11-01T22:52:31.656Z,7.80
2022-11-01T22:55:09.207Z,7.13
2022-11-01T22:57:44.217Z,5.60
2022-11-01T23:00:29.855Z,6.20
2022-11-01T23:03:02.049Z,7.60
2022-11-01T23:05:30.405Z,7.57
2022-11-01T23:08:00.561Z,7.73
2022-11-01T23:10:32.892Z,4.10
2022-11-01T23:13:25.826Z,6.20
2022-11-01T23:16:01.718Z,7.47
2022-11-01T23:18:32.234Z,4.83
2022-11-01T23:21:02.881Z,7.00
2022-11-01T23:23:30.937Z,2.60
2022-11-01T23:26:03.176Z,5.23
2022-11-01T23:28:34.926Z,4.10
2022-11-01T23:31:04.530Z,4.50
2022-11-01T23:33:36.969Z,6.30
2022-11-01T23:36:05.626Z,4.50
2022-11-01T23:38:36.553Z,6.70
2022-11-01T23:41:06.906Z,4.80
2022-11-01T23:43:38.374Z,5.43
2022-11-01T23:46:07.657Z,8.23
2022-11-01T23:48:41.480Z,5.27
2022-11-01T23:51:15.331Z,6.23
2022-11-01T23:53:44.398Z,5.97
2022-11-01T23:56:18.207Z,4.00
2022-11-01T23:58:49.171Z,4.03
